Time;durP1;ratioP1;P1;durP2;ratioP2;P2;SDS_P1;SDS_P2;PMS_P1;PMS_P2;Temp;Humidity;BMP_temperature;BMP_pressure;BME280_temperature;BME280_humidity;BME280_pressure;Samples;Min_cycle;Max_cycle;Signal;HPM_P1;HPM_P2
2022/11/17 00:00:42;;;;;;;16.73;10.20;;;;;;;9.90;100.00;99496.78;4973723;28;20059;-69
2022/11/17 00:03:14;;;;;;;19.30;11.65;;;;;;;9.91;100.00;99506.59;4975542;28;20050;-69
2022/11/17 00:05:43;;;;;;;21.95;12.40;;;;;;;9.95;100.00;99504.91;4972431;28;20050;-69
2022/11/17 00:08:11;;;;;;;22.40;12.38;;;;;;;10.02;100.00;99500.97;4974211;28;20058;-69
2022/11/17 00:10:39;;;;;;;21.15;12.10;;;;;;;10.01;100.00;99502.03;4974433;28;20123;-69
2022/11/17 00:15:56;;;;;;;20.15;11.10;;;;;;;9.84;100.00;99503.47;4972590;28;20051;-69
2022/11/17 00:21:22;;;;;;;26.77;13.80;;;;;;;9.77;100.00;99508.50;4974787;28;20062;-69
2022/11/17 00:23:50;;;;;;;27.98;14.07;;;;;;;9.85;100.00;99504.25;4973916;28;20065;-69
2022/11/17 00:26:20;;;;;;;26.20;14.10;;;;;;;9.85;100.00;99505.09;4972396;28;20074;-69
2022/11/17 00:28:55;;;;;;;23.95;12.95;;;;;;;9.82;100.00;99505.66;4975118;28;20043;-69
2022/11/17 00:34:16;;;;;;;24.60;13.65;;;;;;;9.67;100.00;99472.06;4974795;28;20055;-69
2022/11/17 00:36:48;;;;;;;23.33;14.87;;;;;;;9.60;100.00;99481.75;4972235;28;20058;-69
2022/11/17 00:39:18;;;;;;;26.52;14.77;;;;;;;9.62;100.00;99499.47;4973727;28;20401;-69
2022/11/17 00:41:46;;;;;;;23.40;14.23;;;;;;;9.65;100.00;99503.53;4972177;28;20057;-69
2022/11/17 00:44:15;;;;;;;24.70;13.55;;;;;;;9.62;100.00;99499.47;4974779;28;20051;-69
2022/11/17 00:46:43;;;;;;;24.33;14.05;;;;;;;9.59;100.00;99504.72;4972985;28;20540;-69
2022/11/17 00:49:11;;;;;;;22.77;13.02;;;;;;;9.54;100.00;99505.63;4974539;28;20513;-69
2022/11/17 00:51:39;;;;;;;22.40;12.85;;;;;;;9.54;100.00;99495.50;4972943;28;20070;-70
2022/11/17 00:54:10;;;;;;;22.65;12.65;;;;;;;9.40;100.00;99497.41;4973773;28;20051;-69
2022/11/17 00:56:38;;;;;;;21.00;11.68;;;;;;;9.39;100.00;99493.03;4974662;28;20043;-69
2022/11/17 00:59:06;;;;;;;16.60;10.77;;;;;;;9.45;100.00;99502.78;4974281;28;20139;-69
2022/11/17 01:01:34;;;;;;;20.70;12.32;;;;;;;9.54;100.00;99494.72;4973125;28;20058;-69
2022/11/17 01:04:03;;;;;;;19.95;10.45;;;;;;;9.43;100.00;99499.50;4974530;28;20051;-69
2022/11/17 01:06:35;;;;;;;17.42;10.50;;;;;;;9.37;100.00;99487.06;4973146;28;20786;-69
2022/11/17 01:09:05;;;;;;;16.77;10.85;;;;;;;9.35;100.00;99484.66;4973220;28;20116;-69
2022/11/17 01:11:33;;;;;;;19.83;10.85;;;;;;;9.38;100.00;99475.84;4973408;28;20047;-69
2022/11/17 01:14:01;;;;;;;18.00;10.27;;;;;;;9.36;100.00;99477.25;4974097;28;20058;-69
2022/11/17 01:16:30;;;;;;;20.23;10.73;;;;;;;9.38;100.00;99486.75;4973070;28;20046;-69
2022/11/17 01:19:01;;;;;;;16.52;9.93;;;;;;;9.39;100.00;99498.50;4972658;28;20054;-69
2022/11/17 01:21:30;;;;;;;15.95;10.02;;;;;;;9.37;100.00;99501.53;4973363;28;20047;-69
2022/11/17 01:23:59;;;;;;;14.85;9.57;;;;;;;9.39;100.00;99510.22;4973431;28;20054;-69
2022/11/17 01:26:30;;;;;;;20.15;10.50;;;;;;;9.38;100.00;99499.59;4972329;28;20058;-69
2022/11/17 01:29:00;;;;;;;15.73;9.75;;;;;;;9.35;100.00;99501.03;4973442;28;20062;-69
2022/11/17 01:31:30;;;;;;;15.50;10.20;;;;;;;9.34;100.00;99502.13;4972909;28;20047;-69
2022/11/17 01:33:58;;;;;;;16.10;9.60;;;;;;;9.29;100.00;99507.66;4974101;28;20505;-69
2022/11/17 01:39:19;;;;;;;13.75;8.75;;;;;;;9.42;100.00;99492.44;4973283;28;20054;-69
2022/11/17 01:41:47;;;;;;;18.58;10.27;;;;;;;9.44;100.00;99495.69;4973370;28;20055;-69
2022/11/17 01:44:51;;;;;;;17.23;9.57;;;;;;;9.45;100.00;99491.03;4973316;28;20402;-69
2022/11/17 01:47:37;;;;;;;17.13;10.55;;;;;;;9.41;100.00;99491.63;4973242;28;20394;-69
2022/11/17 01:50:20;;;;;;;17.98;9.98;;;;;;;9.55;100.00;99497.13;4962491;28;20506;-69
2022/11/17 01:52:51;;;;;;;18.92;11.07;;;;;;;9.49;100.00;99508.44;4973473;28;20055;-69
2022/11/17 01:55:21;;;;;;;19.15;11.00;;;;;;;9.49;100.00;99514.69;4970372;28;20043;-70
2022/11/17 01:58:05;;;;;;;20.00;11.27;;;;;;;9.38;100.00;99508.59;4972765;28;20046;-69
2022/11/17 02:00:33;;;;;;;17.83;11.40;;;;;;;9.29;100.00;99504.91;4973405;28;20054;-69
2022/11/17 02:03:01;;;;;;;18.88;11.10;;;;;;;9.26;100.00;99502.81;4973094;28;20051;-69
2022/11/17 02:05:48;;;;;;;23.98;13.65;;;;;;;9.23;100.00;99500.66;4972024;28;20042;-69
2022/11/17 02:08:19;;;;;;;25.58;15.07;;;;;;;9.32;100.00;99509.81;4972179;28;20070;-69
2022/11/17 02:10:49;;;;;;;26.75;14.88;;;;;;;9.29;100.00;99499.47;4973432;28;20047;-69
2022/11/17 02:13:21;;;;;;;31.40;15.45;;;;;;;9.31;100.00;99505.47;4972904;28;20078;-69
2022/11/17 02:15:49;;;;;;;28.40;14.57;;;;;;;9.32;100.00;99514.44;4971502;28;20453;-69
2022/11/17 02:18:17;;;;;;;25.00;14.15;;;;;;;9.27;100.00;99518.06;4974112;28;20062;-69
2022/11/17 02:21:04;;;;;;;25.15;14.50;;;;;;;9.19;100.00;99521.47;4972269;28;20058;-69
2022/11/17 02:24:09;;;;;;;23.80;13.95;;;;;;;9.16;100.00;99516.59;4954265;29;20043;-69
2022/11/17 02:26:58;;;;;;;21.75;13.18;;;;;;;8.95;100.00;99515.00;4954132;29;20059;-69
2022/11/17 02:29:52;;;;;;;22.27;12.55;;;;;;;8.70;100.00;99516.97;4953307;28;20055;-69
2022/11/17 02:32:31;;;;;;;25.92;15.13;;;;;;;8.69;100.00;99530.91;4967127;28;20050;-69
2022/11/17 02:35:26;;;;;;;28.88;15.95;;;;;;;8.73;100.00;99523.75;4954052;29;20047;-69
2022/11/17 02:38:18;;;;;;;34.83;19.27;;;;;;;8.59;100.00;99521.75;4971661;28;20062;-69
2022/11/17 02:41:12;;;;;;;36.58;19.08;;;;;;;8.44;100.00;99513.72;4971028;28;20055;-69
2022/11/17 02:44:03;;;;;;;30.65;17.70;;;;;;;8.42;100.00;99518.69;4973299;28;20066;-69
2022/11/17 02:46:50;;;;;;;33.88;18.92;;;;;;;8.33;100.00;99513.06;4972404;28;20839;-69
2022/11/17 02:49:30;;;;;;;33.80;19.17;;;;;;;8.49;100.00;99521.84;4986411;28;20063;-69
2022/11/17 02:51:59;;;;;;;24.52;14.30;;;;;;;8.45;100.00;99490.81;4972543;28;20058;-69
2022/11/17 02:54:30;;;;;;;27.20;15.32;;;;;;;8.33;100.00;99492.03;4972234;28;20050;-69
2022/11/17 02:56:58;;;;;;;24.52;15.60;;;;;;;8.39;100.00;99479.19;4972233;28;20062;-69
2022/11/17 02:59:43;;;;;;;23.90;14.60;;;;;;;8.45;100.00;99494.34;4972016;28;20046;-69
2022/11/17 03:02:17;;;;;;;24.20;14.93;;;;;;;8.53;100.00;99495.66;4973093;28;20058;-69
2022/11/17 03:05:12;;;;;;;25.83;14.93;;;;;;;8.60;100.00;99484.38;4970295;28;20058;-69
2022/11/17 03:07:46;;;;;;;23.15;14.13;;;;;;;8.47;100.00;99472.25;4971952;28;20058;-69
2022/11/17 03:10:21;;;;;;;23.73;13.55;;;;;;;8.42;100.00;99478.56;4972473;28;20051;-70
2022/11/17 03:13:26;;;;;;;20.73;12.80;;;;;;;8.34;100.00;99465.59;4972307;28;20055;-70
2022/11/17 03:16:06;;;;;;;;;;;;;;;8.33;100.00;99469.44;4972807;28;20063;-70
2022/11/17 03:18:37;;;;;;;15.70;9.30;;;;;;;8.41;100.00;99470.72;4974974;28;19941;-70
2022/11/17 03:21:09;;;;;;;15.55;8.52;;;;;;;8.38;100.00;99472.09;4975551;28;20055;-69
2022/11/17 03:23:49;;;;;;;16.95;11.13;;;;;;;8.25;100.00;99462.72;4976003;28;20047;-70
2022/11/17 03:26:28;;;;;;;15.13;10.18;;;;;;;8.13;100.00;99463.16;4976220;28;20433;-70
2022/11/17 03:28:58;;;;;;;17.13;10.25;;;;;;;8.14;100.00;99470.22;4974812;28;20042;-70
2022/11/17 03:31:28;;;;;;;17.50;9.80;;;;;;;8.14;100.00;99474.84;4975709;28;20062;-70
2022/11/17 03:33:58;;;;;;;19.08;10.27;;;;;;;8.14;100.00;99475.66;4975999;28;20070;-70
2022/11/17 03:36:34;;;;;;;14.25;9.82;;;;;;;8.23;100.00;99491.38;4976224;28;20051;-70
2022/11/17 03:39:12;;;;;;;17.63;9.82;;;;;;;8.16;100.00;99495.25;4975154;28;20042;-70
2022/11/17 03:41:44;;;;;;;16.80;9.57;;;;;;;8.19;100.00;99493.88;4975285;28;20047;-70
2022/11/17 03:44:19;;;;;;;19.40;10.25;;;;;;;8.44;100.00;99483.75;4956320;28;20486;-70
2022/11/17 03:46:50;;;;;;;18.25;10.95;;;;;;;8.38;100.00;99476.72;4956177;28;20085;-70
2022/11/17 03:49:59;;;;;;;22.02;11.05;;;;;;;8.40;100.00;99485.44;4969443;28;20050;-70
2022/11/17 03:52:28;;;;;;;21.15;10.80;;;;;;;8.32;100.00;99487.69;4939752;28;20529;-69
2022/11/17 03:54:56;;;;;;;17.80;10.45;;;;;;;8.38;100.00;99477.56;4974777;28;20062;-70
2022/11/17 03:57:33;;;;;;;19.85;10.50;;;;;;;8.44;100.00;99470.09;4974430;28;20062;-69
2022/11/17 04:00:06;;;;;;;18.75;10.77;;;;;;;8.45;100.00;99469.81;4974259;28;20062;-69
2022/11/17 04:02:44;;;;;;;21.55;11.27;;;;;;;8.52;100.00;99460.50;4989064;28;20055;-70
2022/11/17 04:05:16;;;;;;;24.33;12.93;;;;;;;8.60;100.00;99463.38;4975689;28;20047;-69
2022/11/17 04:07:46;;;;;;;21.73;11.52;;;;;;;8.66;100.00;99450.47;4974730;28;20053;-69
2022/11/17 04:10:19;;;;;;;18.80;11.90;;;;;;;8.69;100.00;99457.25;4974213;28;20394;-69
2022/11/17 04:18:22;;;;;;;22.65;12.35;;;;;;;8.80;100.00;99471.56;4975464;28;20482;-69
2022/11/17 04:20:52;;;;;;;18.60;11.07;;;;;;;8.80;100.00;99469.63;4973973;28;20046;-70
2022/11/17 04:23:21;;;;;;;18.77;10.90;;;;;;;8.73;100.00;99489.13;4975144;28;20394;-70
2022/11/17 04:28:47;;;;;;;19.08;12.20;;;;;;;8.85;100.00;99505.03;4973587;28;20505;-69
2022/11/17 04:31:22;;;;;;;19.35;11.40;;;;;;;8.90;100.00;99497.91;4974467;28;20069;-70
2022/11/17 04:33:51;;;;;;;21.38;11.43;;;;;;;8.86;100.00;99493.00;4974974;28;20055;-70
2022/11/17 04:36:27;;;;;;;16.83;10.35;;;;;;;8.79;100.00;99503.50;4973280;28;20514;-70
2022/11/17 04:38:57;;;;;;;17.25;10.18;;;;;;;8.72;100.00;99509.31;4973113;28;20051;-70
2022/11/17 04:44:16;;;;;;;20.02;10.18;;;;;;;8.77;100.00;99513.91;4973732;28;20058;-70
2022/11/17 04:46:47;;;;;;;18.25;11.43;;;;;;;8.77;100.00;99516.63;4974498;28;20051;-69
2022/11/17 04:49:17;;;;;;;18.98;11.50;;;;;;;8.76;100.00;99520.47;4973842;28;20042;-70
2022/11/17 04:51:45;;;;;;;17.02;10.50;;;;;;;8.81;100.00;99516.84;4974630;28;20053;-70
2022/11/17 04:54:15;;;;;;;20.30;11.18;;;;;;;8.86;100.00;99514.03;4974208;28;20058;-69
2022/11/17 04:56:47;;;;;;;21.98;11.55;;;;;;;8.92;100.00;99512.03;4974754;28;20053;-70
2022/11/17 04:59:15;;;;;;;19.58;11.60;;;;;;;8.93;100.00;99510.94;4973121;28;20549;-70
2022/11/17 05:01:43;;;;;;;21.88;12.38;;;;;;;8.82;100.00;99510.28;4973619;28;20042;-70
2022/11/17 05:04:13;;;;;;;18.70;12.23;;;;;;;8.87;100.00;99513.75;4973720;28;20046;-70
2022/11/17 05:06:44;;;;;;;20.92;11.70;;;;;;;9.06;100.00;99509.38;4974135;28;20077;-70
2022/11/17 05:09:14;;;;;;;17.42;10.30;;;;;;;8.95;100.00;99495.09;4973687;28;20502;-69
2022/11/17 05:14:29;;;;;;;22.98;11.23;;;;;;;8.74;100.00;99473.56;4973817;28;20070;-69
2022/11/17 05:17:08;;;;;;;22.45;11.52;;;;;;;8.68;100.00;99480.19;4973962;28;20053;-70
2022/11/17 05:19:46;;;;;;;20.77;11.68;;;;;;;8.75;100.00;99494.25;4973182;28;20301;-70
2022/11/17 05:25:16;;;;;;;21.23;11.77;;;;;;;8.68;100.00;99502.81;4965751;28;20050;-69
2022/11/17 05:27:43;;;;;;;20.23;10.45;;;;;;;8.72;100.00;99500.31;4973129;28;20031;-70
2022/11/17 05:30:11;;;;;;;19.98;10.40;;;;;;;8.76;100.00;99512.28;4972369;28;20049;-69
2022/11/17 05:32:39;;;;;;;19.45;11.68;;;;;;;8.68;100.00;99499.28;4973150;28;20046;-69
2022/11/17 05:35:07;;;;;;;23.63;12.30;;;;;;;8.70;100.00;99494.34;4972976;28;20062;-70
2022/11/17 05:37:35;;;;;;;23.73;11.85;;;;;;;8.63;100.00;99483.81;4956526;28;20055;-69
2022/11/17 05:40:03;;;;;;;21.27;11.18;;;;;;;8.71;100.00;99482.34;4957082;28;20043;-70
2022/11/17 05:42:31;;;;;;;17.98;11.07;;;;;;;8.74;100.00;99489.91;4969107;28;20062;-69
2022/11/17 05:44:59;;;;;;;20.33;10.93;;;;;;;8.73;100.00;99491.03;4972792;28;20059;-69
2022/11/17 05:47:26;;;;;;;19.13;11.80;;;;;;;8.79;100.00;99480.88;4973267;28;20042;-70
2022/11/17 05:49:54;;;;;;;18.25;11.18;;;;;;;8.73;100.00;99488.28;4973825;28;20050;-70
2022/11/17 05:52:22;;;;;;;22.88;11.38;;;;;;;8.74;100.00;99484.47;4954592;28;20477;-70
2022/11/17 05:54:50;;;;;;;18.52;10.68;;;;;;;8.79;100.00;99483.59;4971782;28;20502;-69
2022/11/17 05:57:27;;;;;;;18.58;11.57;;;;;;;8.73;100.00;99482.84;4972948;28;20047;-70
2022/11/17 06:00:00;;;;;;;18.80;10.77;;;;;;;9.20;100.00;99479.44;4978049;28;20058;-78
2022/11/17 06:02:37;;;;;;;;;;;;;;;9.58;100.00;99482.06;4954441;29;20062;-77
2022/11/17 06:05:06;;;;;;;21.20;11.93;;;;;;;10.03;100.00;99497.09;4954234;29;20285;-78
2022/11/17 06:07:35;;;;;;;19.23;12.02;;;;;;;10.24;100.00;99491.22;4960556;28;20042;-77
2022/11/17 06:10:04;;;;;;;20.08;11.98;;;;;;;10.51;100.00;99495.09;4969671;28;20042;-77
2022/11/17 06:12:32;;;;;;;17.27;10.63;;;;;;;10.50;99.85;99502.47;4967598;28;20046;-77
2022/11/17 06:15:00;;;;;;;16.40;9.52;;;;;;;10.42;99.58;99492.22;4953666;29;20275;-78
2022/11/17 06:17:33;;;;;;;19.75;10.32;;;;;;;10.46;99.00;99491.34;4970271;28;20047;-79
2022/11/17 06:20:11;;;;;;;18.70;10.68;;;;;;;10.25;100.00;99487.38;4971338;28;20047;-79
2022/11/17 06:22:39;;;;;;;14.40;9.63;;;;;;;10.08;100.00;99475.94;4973041;28;20054;-79
2022/11/17 06:25:17;;;;;;;16.77;10.13;;;;;;;10.12;100.00;99483.53;4972991;28;20054;-68
2022/11/17 06:27:48;;;;;;;16.25;9.38;;;;;;;9.77;100.00;99482.00;4966764;28;20490;-68
2022/11/17 06:30:16;;;;;;;17.17;8.80;;;;;;;9.71;100.00;99479.63;4960364;28;20052;-68
2022/11/17 06:32:45;;;;;;;21.10;10.30;;;;;;;9.51;100.00;99490.66;4953037;28;20059;-68
2022/11/17 06:35:15;;;;;;;17.38;10.43;;;;;;;9.44;100.00;99487.50;4967586;28;20379;-68
2022/11/17 06:37:43;;;;;;;16.23;9.23;;;;;;;9.40;100.00;99494.66;4959013;28;20062;-68
2022/11/17 06:40:12;;;;;;;18.60;10.43;;;;;;;9.39;100.00;99488.38;4963562;28;20478;-69
2022/11/17 06:45:26;;;;;;;16.73;9.75;;;;;;;9.52;100.00;99469.59;4953191;28;20066;-68
2022/11/17 06:47:55;;;;;;;20.42;10.85;;;;;;;9.52;100.00;99475.06;4966656;28;20050;-83
2022/11/17 06:50:23;;;;;;;21.98;10.55;;;;;;;9.58;100.00;99478.53;4972594;28;20058;-68
2022/11/17 06:52:55;;;;;;;17.90;10.05;;;;;;;9.54;100.00;99487.31;4976264;28;20047;-68
2022/11/17 06:55:24;;;;;;;16.90;10.35;;;;;;;9.56;100.00;99481.56;4975262;28;20047;-68
2022/11/17 06:57:58;;;;;;;15.55;9.65;;;;;;;9.61;100.00;99470.53;4976568;28;20062;-68
2022/11/17 07:00:27;;;;;;;;;;;;;;;9.61;100.00;99456.88;4976437;28;20409;-68
2022/11/17 07:03:13;;;;;;;22.25;10.98;;;;;;;9.50;100.00;99447.25;4976184;28;20366;-68
2022/11/17 07:05:41;;;;;;;18.92;10.88;;;;;;;9.57;100.00;99444.94;4976333;28;20062;-69
2022/11/17 07:08:09;;;;;;;19.67;10.95;;;;;;;9.63;100.00;99457.38;4975830;28;20077;-69
2022/11/17 07:10:37;;;;;;;21.77;12.07;;;;;;;9.58;100.00;99462.13;4976115;28;20047;-69
2022/11/17 07:13:05;;;;;;;19.70;11.52;;;;;;;9.69;100.00;99458.13;4976059;28;20046;-69
2022/11/17 07:15:32;;;;;;;19.70;11.93;;;;;;;9.62;100.00;99455.75;4976180;28;20055;-68
2022/11/17 07:18:00;;;;;;;21.05;11.57;;;;;;;9.62;100.00;99458.50;4976095;28;20077;-68
2022/11/17 07:20:28;;;;;;;19.13;11.63;;;;;;;9.66;100.00;99465.00;4975307;28;20494;-68
2022/11/17 07:22:59;;;;;;;24.40;11.55;;;;;;;9.78;100.00;99477.34;4989448;28;20051;-68
2022/11/17 07:25:27;;;;;;;25.17;12.93;;;;;;;9.73;100.00;99482.91;4975985;28;20051;-68
2022/11/17 07:27:58;;;;;;;22.90;11.82;;;;;;;9.76;100.00;99474.09;4975453;28;20050;-68
2022/11/17 07:30:27;;;;;;;22.98;12.77;;;;;;;9.79;100.00;99484.44;4976098;28;20058;-69
2022/11/17 07:32:57;;;;;;;19.73;11.65;;;;;;;9.54;100.00;99486.50;4974522;28;20053;-69
2022/11/17 07:35:26;;;;;;;22.38;12.77;;;;;;;9.63;100.00;99492.09;4975460;28;20494;-68
2022/11/17 07:37:58;;;;;;;19.20;11.07;;;;;;;9.60;100.00;99498.16;4975723;28;20505;-68
2022/11/17 07:40:30;;;;;;;20.17;10.65;;;;;;;9.71;100.00;99490.56;4975768;28;20054;-68
2022/11/17 07:42:58;;;;;;;19.55;10.70;;;;;;;9.78;100.00;99501.94;4974503;28;20485;-68
2022/11/17 07:45:27;;;;;;;17.63;10.25;;;;;;;9.89;100.00;99511.56;4975310;28;20489;-68
2022/11/17 07:48:00;;;;;;;18.65;10.95;;;;;;;10.00;100.00;99505.91;4975558;28;20055;-68
2022/11/17 07:50:29;;;;;;;17.48;10.43;;;;;;;9.87;100.00;99502.06;4975388;28;20509;-69
2022/11/17 07:52:58;;;;;;;20.63;11.27;;;;;;;9.78;100.00;99504.66;4973972;28;20070;-68
2022/11/17 07:55:26;;;;;;;21.52;12.10;;;;;;;9.90;100.00;99507.72;4975418;28;20043;-68
2022/11/17 07:57:58;;;;;;;22.23;11.20;;;;;;;9.77;100.00;99513.94;4975236;28;20034;-68
2022/11/17 08:00:29;;;;;;;25.60;12.77;;;;;;;9.91;100.00;99516.72;4975192;28;20074;-68
2022/11/17 08:03:03;;;;;;;23.85;11.95;;;;;;;10.17;100.00;99513.50;4975027;28;20062;-68
2022/11/17 08:05:35;;;;;;;30.23;12.82;;;;;;;9.79;100.00;99509.81;4975355;28;20393;-68
2022/11/17 08:08:12;;;;;;;31.40;14.55;;;;;;;9.93;100.00;99512.56;4975127;28;20052;-68
2022/11/17 08:10:41;;;;;;;24.13;14.57;;;;;;;9.88;100.00;99509.94;4975192;28;20066;-68
2022/11/17 08:13:10;;;;;;;37.13;15.15;;;;;;;10.02;100.00;99522.81;4975363;28;20050;-68
2022/11/17 08:15:38;;;;;;;30.67;14.00;;;;;;;10.22;100.00;99524.34;4974807;28;20059;-68
2022/11/17 08:18:06;;;;;;;32.78;13.73;;;;;;;10.13;100.00;99526.97;4975030;28;20051;-68
2022/11/17 08:20:34;;;;;;;26.52;13.70;;;;;;;10.16;100.00;99531.84;4974310;28;20512;-68
2022/11/17 08:23:02;;;;;;;29.65;14.00;;;;;;;10.24;100.00;99535.78;4974970;28;20047;-69
2022/11/17 08:25:30;;;;;;;21.20;11.55;;;;;;;10.31;100.00;99528.00;4975218;28;20051;-69
2022/11/17 08:27:58;;;;;;;25.20;12.02;;;;;;;10.36;100.00;99529.81;4974754;28;20059;-69
2022/11/17 08:30:27;;;;;;;24.40;12.27;;;;;;;10.57;100.00;99532.16;4974781;28;20062;-69
2022/11/17 08:32:55;;;;;;;24.88;13.27;;;;;;;10.49;100.00;99525.47;4974568;28;20046;-69
2022/11/17 08:35:24;;;;;;;23.50;12.40;;;;;;;10.62;100.00;99529.31;4974698;28;20486;-69
2022/11/17 08:37:53;;;;;;;20.52;11.35;;;;;;;10.65;100.00;99536.13;4974404;28;20062;-69
2022/11/17 08:40:20;;;;;;;18.13;10.70;;;;;;;10.57;100.00;99529.44;4974552;28;20074;-68
2022/11/17 08:42:53;;;;;;;20.52;10.93;;;;;;;10.50;100.00;99534.50;4974649;28;20047;-68
2022/11/17 08:45:27;;;;;;;19.95;11.25;;;;;;;10.42;100.00;99536.78;4974391;28;20050;-69
2022/11/17 08:47:55;;;;;;;20.40;11.10;;;;;;;10.28;100.00;99523.13;4974480;28;20486;-68
2022/11/17 08:50:23;;;;;;;22.23;10.10;;;;;;;10.26;100.00;99527.28;4974370;28;20406;-69
2022/11/17 08:52:52;;;;;;;19.75;10.38;;;;;;;10.46;100.00;99535.09;4973972;28;20059;-69
2022/11/17 08:55:20;;;;;;;19.63;9.70;;;;;;;10.90;100.00;99534.72;4973892;28;20047;-69
2022/11/17 08:57:48;;;;;;;18.38;11.25;;;;;;;11.13;100.00;99548.47;4973959;28;20055;-68
2022/11/17 09:00:18;;;;;;;19.40;10.13;;;;;;;11.43;100.00;99548.84;4974292;28;20046;-69
2022/11/17 09:02:46;;;;;;;21.20;10.45;;;;;;;11.56;99.29;99548.00;4974272;28;20050;-69
2022/11/17 09:05:14;;;;;;;16.98;9.60;;;;;;;11.50;100.00;99541.03;4974096;28;20050;-69
2022/11/17 09:07:42;;;;;;;15.77;9.00;;;;;;;11.92;97.77;99553.66;4973770;28;20051;-69
2022/11/17 09:10:10;;;;;;;16.75;9.65;;;;;;;12.26;96.02;99552.25;4974001;28;20070;-69
2022/11/17 09:12:38;;;;;;;15.95;10.07;;;;;;;12.41;95.99;99547.47;4973700;28;20043;-69
2022/11/17 09:15:07;;;;;;;16.63;9.63;;;;;;;12.21;96.11;99544.97;4973779;28;20055;-69
2022/11/17 09:17:34;;;;;;;16.65;9.85;;;;;;;12.75;94.30;99541.28;4973627;28;20043;-69
2022/11/17 09:20:02;;;;;;;17.83;10.70;;;;;;;12.84;93.40;99544.03;4973796;28;20051;-69
2022/11/17 09:22:30;;;;;;;19.85;10.80;;;;;;;12.65;93.72;99549.00;4972166;28;20070;-69
2022/11/17 09:24:58;;;;;;;18.85;11.23;;;;;;;12.78;94.05;99545.31;4973774;28;20406;-69
2022/11/17 09:27:26;;;;;;;18.75;10.82;;;;;;;13.18;90.15;99547.13;4973764;28;20050;-69
2022/11/17 09:29:53;;;;;;;20.70;11.48;;;;;;;13.63;90.21;99537.75;4973388;28;20054;-69
2022/11/17 09:32:21;;;;;;;22.67;12.00;;;;;;;13.11;91.00;99547.59;4973229;28;20058;-69
2022/11/17 09:34:49;;;;;;;20.88;12.15;;;;;;;12.96;91.90;99550.84;4973591;28;20054;-69
2022/11/17 09:37:17;;;;;;;26.42;13.27;;;;;;;12.34;94.95;99551.50;4973938;28;20047;-69
2022/11/17 09:39:45;;;;;;;22.95;11.93;;;;;;;12.06;96.88;99559.91;4972676;28;20509;-69
2022/11/17 09:42:21;;;;;;;25.35;13.20;;;;;;;11.90;98.12;99567.72;4973437;28;20054;-69
2022/11/17 09:45:07;;;;;;;27.40;13.20;;;;;;;11.67;98.40;99565.00;4973323;28;20055;-69
2022/11/17 09:47:59;;;;;;;23.27;12.68;;;;;;;11.40;100.00;99560.44;4973411;28;20050;-69
2022/11/17 09:50:49;;;;;;;26.40;13.57;;;;;;;11.39;100.00;99575.28;4973351;28;20049;-69
2022/11/17 09:53:48;;;;;;;26.20;12.15;;;;;;;11.39;100.00;99578.00;4973266;28;20050;-69
2022/11/17 09:56:16;;;;;;;24.98;12.95;;;;;;;11.56;99.77;99575.41;4973220;28;20405;-69
2022/11/17 09:58:49;;;;;;;25.17;12.32;;;;;;;11.52;99.46;99568.91;4973110;28;20517;-69
2022/11/17 10:01:20;;;;;;;27.08;13.52;;;;;;;11.47;100.00;99562.75;4973266;28;20047;-69
2022/11/17 10:03:52;;;;;;;30.67;13.63;;;;;;;11.61;100.00;99555.28;4973117;28;20055;-70
2022/11/17 10:06:23;;;;;;;31.10;13.60;;;;;;;11.89;98.42;99568.84;4973241;28;20043;-69
2022/11/17 10:09:24;;;;;;;24.80;13.50;;;;;;;11.98;97.00;99568.91;4973250;28;20046;-69
2022/11/17 10:11:59;;;;;;;26.63;13.60;;;;;;;12.30;96.67;99558.75;4972500;28;20054;-69
2022/11/17 10:14:28;;;;;;;29.27;13.82;;;;;;;12.46;94.57;99561.84;4972969;28;20189;-69
2022/11/17 10:16:58;;;;;;;25.73;12.40;;;;;;;12.32;94.50;99567.44;4972874;28;20375;-70
2022/11/17 10:19:29;;;;;;;20.35;10.98;;;;;;;12.45;93.88;99559.41;4973277;28;20371;-69
2022/11/17 10:22:15;;;;;;;24.35;12.43;;;;;;;12.50;93.05;99548.31;4973013;28;20043;-70
2022/11/17 10:24:50;;;;;;;26.33;12.27;;;;;;;12.28;93.75;99550.03;4974572;28;20063;-67
2022/11/17 10:27:23;;;;;;;23.80;11.50;;;;;;;12.20;95.78;99548.03;4979315;28;20043;-68
2022/11/17 10:30:00;;;;;;;19.80;12.27;;;;;;;12.22;95.17;99549.34;4979424;28;20047;-69
2022/11/17 10:32:31;;;;;;;18.25;10.63;;;;;;;12.48;94.50;99556.84;4979047;28;20058;-68
2022/11/17 10:35:19;;;;;;;20.95;11.77;;;;;;;12.44;93.89;99546.84;4979441;28;20046;-69
2022/11/17 10:37:58;;;;;;;25.55;12.40;;;;;;;12.32;94.69;99548.25;4979425;28;20051;-68
2022/11/17 10:40:48;;;;;;;22.00;11.48;;;;;;;12.67;93.42;99544.00;4979305;28;20054;-69
2022/11/17 10:43:22;;;;;;;21.48;11.88;;;;;;;12.68;93.69;99532.72;4979241;28;20065;-69
2022/11/17 10:45:53;;;;;;;23.85;12.35;;;;;;;12.80;90.75;99531.28;4979046;28;20051;-69
2022/11/17 10:48:36;;;;;;;20.80;11.45;;;;;;;12.62;93.04;99523.78;4979246;28;20046;-69
2022/11/17 10:51:21;;;;;;;19.90;10.90;;;;;;;12.46;92.83;99511.69;4979160;28;20545;-69
2022/11/17 10:54:04;;;;;;;25.25;12.85;;;;;;;12.72;94.11;99513.66;4979081;28;20517;-69
2022/11/17 10:56:38;;;;;;;21.10;12.15;;;;;;;13.35;91.12;99516.06;4978823;28;20073;-69
2022/11/17 10:59:22;;;;;;;24.88;11.57;;;;;;;13.46;87.89;99493.75;4977998;28;20051;-69
2022/11/17 11:01:51;;;;;;;22.90;11.68;;;;;;;13.30;90.11;99483.28;4977989;28;20039;-69
2022/11/17 11:04:30;;;;;;;19.70;10.98;;;;;;;13.28;89.99;99474.56;4979195;28;20043;-69
2022/11/17 11:07:13;;;;;;;24.95;11.73;;;;;;;13.12;91.89;99475.06;4979071;28;20050;-69
2022/11/17 11:10:05;;;;;;;25.85;11.52;;;;;;;13.25;90.95;99478.75;4979132;28;20046;-69
2022/11/17 11:12:49;;;;;;;22.85;12.70;;;;;;;14.00;87.55;99496.06;4979057;28;20051;-69
2022/11/17 11:15:20;;;;;;;20.52;11.35;;;;;;;13.94;87.44;99495.44;4979006;28;20055;-69
2022/11/17 11:17:48;;;;;;;23.52;11.60;;;;;;;13.90;86.96;99500.00;4977867;28;20066;-68
2022/11/17 11:20:19;;;;;;;21.55;10.93;;;;;;;14.10;86.18;99500.41;4978821;28;20062;-69
2022/11/17 11:23:16;;;;;;;21.33;10.88;;;;;;;14.10;85.88;99494.91;4979069;28;20059;-69
2022/11/17 11:25:57;;;;;;;22.73;11.65;;;;;;;14.43;84.78;99499.75;4976224;28;20629;-69
2022/11/17 11:28:35;;;;;;;22.55;11.82;;;;;;;14.61;84.05;99497.69;4978996;28;20043;-69
2022/11/17 11:31:47;;;;;;;21.77;11.50;;;;;;;14.67;82.98;99498.31;4978795;28;20050;-70
2022/11/17 11:34:56;;;;;;;22.15;11.63;;;;;;;14.73;83.02;99487.91;4974564;28;20054;-69
2022/11/17 11:37:36;;;;;;;22.73;12.07;;;;;;;14.84;83.37;99480.88;4973944;28;20051;-69
2022/11/17 11:40:30;;;;;;;22.45;11.32;;;;;;;14.69;83.13;99476.75;4975784;28;20078;-69
2022/11/17 11:43:21;;;;;;;23.35;11.05;;;;;;;14.89;81.92;99477.13;4974549;28;20057;-70
2022/11/17 11:45:49;;;;;;;21.15;10.88;;;;;;;15.09;79.87;99486.50;4975678;28;20058;-69
2022/11/17 11:48:27;;;;;;;19.35;11.75;;;;;;;15.40;78.78;99479.72;4975568;28;20050;-69
2022/11/17 11:51:00;;;;;;;20.48;13.55;;;;;;;15.65;79.18;99466.00;4974150;28;20081;-69
2022/11/17 11:54:07;;;;;;;25.95;14.77;;;;;;;15.80;78.92;99472.81;4975581;28;20509;-69
2022/11/17 11:56:43;;;;;;;20.23;10.30;;;;;;;15.97;76.93;99468.28;4953846;29;20055;-70
2022/11/17 11:59:22;;;;;;;22.25;11.73;;;;;;;16.17;76.69;99468.53;4973117;28;20047;-70
2022/11/17 12:02:11;;;;;;;24.00;11.00;;;;;;;15.65;78.65;99460.50;4975370;28;20046;-70
2022/11/17 12:04:48;;;;;;;19.45;10.85;;;;;;;15.85;77.65;99474.56;4975446;28;20046;-70
2022/11/17 12:07:36;;;;;;;20.45;10.75;;;;;;;15.65;78.95;99473.50;4975319;28;20394;-70
2022/11/17 12:10:26;;;;;;;18.58;9.77;;;;;;;15.72;78.89;99473.72;4975172;28;20039;-70
2022/11/17 12:12:54;;;;;;;18.15;9.88;;;;;;;15.52;77.94;99458.88;4975122;28;20047;-70
2022/11/17 12:15:22;;;;;;;19.55;10.48;;;;;;;15.41;78.04;99462.03;4974988;28;20051;-70
2022/11/17 12:18:00;;;;;;;17.88;9.77;;;;;;;15.73;78.34;99464.31;4975254;28;20046;-70